Wednesday, November 21, 2018, 9:59 AM GMT
Back to Local

CWNE, North Point, Prince Edward Island

Location: , , Canada Lat: 47.083
Local Time: 9:59 AM GMT ( 9:59 GMT) Lon: -64
Time Zone: GMT Elev: 49 ft

Show me the last for .
Show Coded

Time T Td Feel RH Dir Speed Gust Alt SLP Vis Weather Sky Remarks
2018-11-21 09:00 32 32 18 99 360° 28 - - 29.68 0 Peak wind: 32 mph (28 kts) from 10° at 03 min
1-hr Precip Total: 0.02"
2018-11-21 08:00 33 32 20 96 10° 26 - - 29.68 0 Peak wind: 33 mph (29 kts) from 10° at 25 min
1-hr Precip Total: 0.02"
2018-11-21 07:00 33 31 19 93 20° 30 - - 29.68 0 Peak wind: 34 mph (30 kts) from 20° at 00 min
1-hr Precip Total: 0.01"
2018-11-21 06:00 33 31 18 93 30° 29 35 - 29.70 0 Peak wind: 34 mph (30 kts) from 30° at 44 min
1-hr Precip Total: 0.01"
2018-11-21 05:00 33 31 20 91 40° 29 - - 29.74 0 Peak wind: 32 mph (28 kts) from 30° at 48 min
1-hr Precip Total: 0.02"
2018-11-21 04:00 33 31 20 91 40° 26 - - 29.76 0 Peak wind: 29 mph (26 kts) from 40° at 57 min
1-hr Precip Total: 0.03"
2018-11-21 03:00 31 32 19 100 60° 21 - - 29.80 0 Peak wind: 27 mph (24 kts) from 50° at 01 min
1-hr Precip Total: 0.02"
2018-11-21 02:00 33 32 21 96 50° 22 - - 29.82 0 Peak wind: 26 mph (23 kts) from 50° at 16 min
1-hr Precip Total: 0.02"
2018-11-21 01:00 31 31 18 97 60° 23 - - 29.83 0 Peak wind: 31 mph (27 kts) from 40° at 01 min
2018-11-21 00:00 34 31 22 90 50° 24 - - 29.86 0 Peak wind: 28 mph (25 kts) from 40° at 54 min
2018-11-20 23:00 34 32 22 91 30° 24 - - 29.88 0 Peak wind: 28 mph (25 kts) from 30° at 33 min
2018-11-20 22:00 34 31 22 87 30° 23 - - 29.91 0 Peak wind: 26 mph (23 kts) from 30° at 53 min
2018-11-20 21:00 34 30 23 85 30° 21 - - 29.93 0 Peak wind: 24 mph (21 kts) from 20° at 35 min
2018-11-20 20:00 34 31 22 89 30° 21 - - 29.94 0 Peak wind: 24 mph (21 kts) from 30° at 37 min
2018-11-20 19:00 34 30 22 87 20° 21 - - 29.94 0 Peak wind: 25 mph (22 kts) from 20° at 10 min
2018-11-20 18:00 33 31 22 89 20° 21 - - 29.94 0 Peak wind: 23 mph (20 kts) from 20° at 55 min
2018-11-20 17:00 34 31 23 91 20° 17 - - 29.95 0 Peak wind: 20 mph (18 kts) from 20° at 29 min
2018-11-20 16:00 34 33 23 96 20° 17 - - 29.97 0 Peak wind: 19 mph (17 kts) from 20° at 47 min
2018-11-20 15:00 34 31 23 88 30° 16 - - 29.98 0 Peak wind: 19 mph (17 kts) from 30° at 15 min
2018-11-20 14:00 33 30 22 89 20° 17 - - 29.98 0 Peak wind: 19 mph (17 kts) from 20° at 57 min
2018-11-20 13:00 33 30 23 87 30° 16 - - 29.99 0 None
2018-11-20 12:00 33 30 23 87 30° 14 - - 29.99 0 None
2018-11-20 11:00 33 30 23 89 30° 15 - - 29.98 0 None
2018-11-20 10:00 33 30 24 88 30° 14 - - 29.98 0 None

Support USWX by starting your Amazon purchase here.